This is the latest recevied weather packets stored in our database for station/object KB6HGN. If no packets are shown the sender has not sent any weather packets the latest 10 day(s).
| Time | Temp. | Humidity | Pressure | Rain* | Wind** | Luminosity | Snow |
|---|---|---|---|---|---|---|---|
| 1778054403 | 12.22° C | 76% | 1018.3 hPa | 0 mm | - | 0 W/m² | - |
| 1778053504 | 12.22° C | 74% | 1018.2 hPa | 0 mm | - | 0 W/m² | - |
| 1778052605 | 12.78° C | 73% | 1018.3 hPa | 0 mm | - | 0 W/m² | - |
| 1778051704 | 12.78° C | 73% | 1018.3 hPa | 0 mm | - | 0 W/m² | - |
| 1778050804 | 13.33° C | 72% | 1018.3 hPa | 0 mm | - | 0 W/m² | - |
| 1778050505 | 13.33° C | 71% | 1018.3 hPa | 0 mm | - | 0 W/m² | - |
| 1778050205 | 13.33° C | 71% | 1018.3 hPa | 0 mm | - | 0 W/m² | - |
| 1778047205 | 13.89° C | 68% | 1017.9 hPa | 0 mm | - | 0 W/m² | - |
| 1778042105 | 15° C | 63% | 1016.9 hPa | 0 mm | - | 0 W/m² | - |
| 1778041505 | 15° C | 62% | 1016.9 hPa | 0 mm | - | 0 W/m² | - |
| 1778041205 | 15° C | 61% | 1016.8 hPa | 0 mm | - | 0 W/m² | - |
| 1778034605 | 17.22° C | 51% | 1014.9 hPa | 0 mm | - | 0 W/m² | - |
| 1778033704 | 17.78° C | 49% | 1014.9 hPa | 0 mm | - | 2 W/m² | - |
| 1778031904 | 18.33° C | 47% | 1014.5 hPa | 0 mm | - | 39 W/m² | - |
| 1778031004 | 18.89° C | 46% | 1014.5 hPa | 0 mm | - | 66 W/m² | - |
| 1778030405 | 18.89° C | 44% | 1014.5 hPa | 0 mm | - | 92 W/m² | - |
| 1778029204 | 18.89° C | 44% | 1014.2 hPa | 0 mm | - | 174 W/m² | - |
| 1778026804 | 19.44° C | 45% | 1014.2 hPa | 0 mm | - | 375 W/m² | - |
| 1778025904 | 18.89° C | 46% | 1014.2 hPa | 0 mm | - | 433 W/m² | - |
| 1778023505 | 18.89° C | 49% | 1014.2 hPa | 0 mm | - | 588 W/m² | - |
| 1778021704 | 17.78° C | 50% | 1014.2 hPa | 0 mm | - | 652 W/m² | - |
| 1778019904 | 17.78° C | 53% | 1014.2 hPa | 0 mm | - | 716 W/m² | - |
| 1778016304 | 17.78° C | 50% | 1014.9 hPa | 0 mm | - | 830 W/m² | - |
| 1778015705 | 18.33° C | 50% | 1014.9 hPa | 0 mm | - | 826 W/m² | - |
| 1778013604 | 18.89° C | 48% | 1014.9 hPa | 0 mm | - | 926 W/m² | - |
* Rain latest hour (hover to see other rain measurements)
** Current wind speed in m/s (hover to see current wind gust speed)